createdAt,value
2022-08-09T00:02:28.795Z,101736.03
2022-08-09T00:05:02.849Z,101739.94
2022-08-09T00:07:45.019Z,101735.84
2022-08-09T00:10:18.128Z,101742.66
2022-08-09T00:12:51.709Z,101737.00
2022-08-09T00:15:26.826Z,101735.38
2022-08-09T00:18:11.265Z,101735.66
2022-08-09T00:20:41.386Z,101738.97
2022-08-09T00:23:54.572Z,101732.69
2022-08-09T00:25:56.691Z,101734.44
2022-08-09T00:28:26.496Z,101738.22
2022-08-09T00:30:54.080Z,101738.97
2022-08-09T00:33:20.755Z,101739.41
2022-08-09T00:36:07.708Z,101727.28
2022-08-09T00:38:35.448Z,101722.56
2022-08-09T00:41:05.379Z,101725.09
2022-08-09T00:44:11.610Z,101729.00
2022-08-09T00:46:45.404Z,101733.47
2022-08-09T00:49:11.248Z,101734.28
2022-08-09T00:51:42.653Z,101733.81
2022-08-09T00:54:22.992Z,101734.38
2022-08-09T00:56:49.777Z,101737.84
2022-08-09T00:59:31.673Z,101739.25
2022-08-09T01:02:05.335Z,101731.22
2022-08-09T01:04:49.328Z,101733.47
2022-08-09T01:07:37.599Z,101748.22
2022-08-09T01:10:51.183Z,101734.09
2022-08-09T01:13:53.265Z,101743.66
2022-08-09T01:16:24.846Z,101746.13
2022-08-09T01:19:04.263Z,101741.34
2022-08-09T01:21:59.362Z,101749.88
2022-08-09T01:24:52.950Z,101736.84
2022-08-09T01:27:23.988Z,101738.88
2022-08-09T01:29:57.006Z,101760.13
2022-08-09T01:32:34.074Z,101756.31
2022-08-09T01:35:28.239Z,101750.88
2022-08-09T01:38:09.630Z,101755.09
2022-08-09T01:40:44.029Z,101755.06
2022-08-09T01:43:12.086Z,101759.16
2022-08-09T01:45:46.076Z,101762.38
2022-08-09T01:48:19.680Z,101755.28
2022-08-09T01:50:54.941Z,101757.97
2022-08-09T01:53:23.936Z,101772.16
2022-08-09T01:55:57.351Z,101762.16
2022-08-09T01:58:27.255Z,101759.75
2022-08-09T02:00:57.278Z,101758.31
2022-08-09T02:03:24.992Z,101761.41
2022-08-09T02:06:39.491Z,101762.06
2022-08-09T02:09:13.771Z,101753.06
2022-08-09T02:11:44.080Z,101750.88
2022-08-09T02:14:15.962Z,101749.69
2022-08-09T02:17:14.609Z,101746.66
2022-08-09T02:19:43.593Z,101752.47
2022-08-09T02:22:31.521Z,101756.38
2022-08-09T02:25:04.634Z,101754.78
2022-08-09T02:27:57.735Z,101759.88
2022-08-09T02:30:25.323Z,101759.06
2022-08-09T02:32:55.074Z,101748.97
2022-08-09T02:36:01.251Z,101761.50
2022-08-09T02:38:21.848Z,101756.16
2022-08-09T02:40:49.618Z,101756.31
2022-08-09T02:43:21.235Z,101761.78
2022-08-09T02:45:50.010Z,101766.81
2022-08-09T02:48:29.754Z,101765.66
2022-08-09T02:51:02.411Z,101759.28
2022-08-09T02:53:43.142Z,101758.31
2022-08-09T02:56:21.373Z,101764.34
2022-08-09T02:58:49.581Z,101760.59
2022-08-09T03:01:29.057Z,101764.19
2022-08-09T03:04:17.160Z,101765.13
2022-08-09T03:06:45.374Z,101762.72
2022-08-09T03:09:14.524Z,101760.53
2022-08-09T03:12:06.137Z,101761.28
2022-08-09T03:14:31.982Z,101763.38
2022-08-09T03:17:02.270Z,101766.78
2022-08-09T03:19:58.404Z,101764.56
2022-08-09T03:22:30.319Z,101771.91
2022-08-09T03:25:20.476Z,101763.78
2022-08-09T03:27:51.450Z,101757.06
2022-08-09T03:30:29.303Z,101765.78
2022-08-09T03:33:01.903Z,101763.78
2022-08-09T03:35:44.222Z,101763.47
2022-08-09T03:38:28.894Z,101767.78
2022-08-09T03:40:55.941Z,101767.91
2022-08-09T03:43:22.598Z,101768.41
2022-08-09T03:46:03.148Z,101770.41
2022-08-09T03:48:48.223Z,101769.78
2022-08-09T03:51:54.207Z,101772.16
2022-08-09T03:54:11.240Z,101770.16
2022-08-09T03:56:41.291Z,101772.50
2022-08-09T03:59:20.937Z,101763.91
2022-08-09T04:01:50.111Z,101766.22
2022-08-09T04:04:18.224Z,101768.41
2022-08-09T04:06:49.340Z,101763.69
2022-08-09T04:09:47.389Z,101768.47
2022-08-09T04:12:30.987Z,101766.50
2022-08-09T04:15:01.976Z,101772.28
2022-08-09T04:17:39.276Z,101770.63
2022-08-09T04:20:07.434Z,101773.63
2022-08-09T04:22:34.534Z,101769.41
2022-08-09T04:25:04.636Z,101772.28
2022-08-09T04:27:32.787Z,101774.97
2022-08-09T04:30:05.013Z,101774.06
2022-08-09T04:32:37.015Z,101782.50
2022-08-09T04:35:08.520Z,101788.38
2022-08-09T04:37:45.901Z,101789.59
2022-08-09T04:40:19.639Z,101796.69
2022-08-09T04:43:01.486Z,101792.97
2022-08-09T04:45:30.601Z,101797.66
2022-08-09T04:48:03.076Z,101798.16
2022-08-09T04:50:34.915Z,101794.81
2022-08-09T04:53:13.443Z,101799.03
2022-08-09T04:55:58.381Z,101801.25
2022-08-09T04:58:31.942Z,101802.59
2022-08-09T05:01:01.410Z,101810.59
2022-08-09T05:03:39.919Z,101808.25
2022-08-09T05:06:21.987Z,101808.31
2022-08-09T05:09:00.641Z,101804.06
2022-08-09T05:11:32.373Z,101802.88
2022-08-09T05:14:05.956Z,101808.59
2022-08-09T05:16:58.107Z,101815.00
2022-08-09T05:19:24.441Z,101820.75
2022-08-09T05:21:55.449Z,101822.34
2022-08-09T05:24:24.312Z,101823.25
2022-08-09T05:26:52.129Z,101817.09
2022-08-09T05:29:23.925Z,101817.78
2022-08-09T05:31:56.248Z,101815.16
2022-08-09T05:34:31.499Z,101820.34
2022-08-09T05:37:06.070Z,101828.66
2022-08-09T05:39:43.524Z,101827.25
2022-08-09T05:42:16.945Z,101830.00
2022-08-09T05:44:53.205Z,101834.19
2022-08-09T05:47:24.691Z,101830.44
2022-08-09T05:50:34.837Z,101824.22
2022-08-09T05:52:44.517Z,101831.84
2022-08-09T05:55:23.303Z,101827.72
2022-08-09T05:57:56.507Z,101841.44
2022-08-09T06:00:29.633Z,101834.28
2022-08-09T06:03:02.701Z,101828.38
2022-08-09T06:05:56.883Z,101844.97
2022-08-09T06:08:24.344Z,101836.00
2022-08-09T06:10:55.676Z,101834.81
2022-08-09T06:13:23.753Z,101836.06
2022-08-09T06:15:52.389Z,101842.44
2022-08-09T06:18:24.760Z,101848.56
2022-08-09T06:20:54.577Z,101848.97
2022-08-09T06:23:57.302Z,101851.50
2022-08-09T06:26:20.329Z,101853.09
2022-08-09T06:28:59.927Z,101855.88
2022-08-09T06:31:30.733Z,101865.38
2022-08-09T06:34:06.290Z,101863.31
2022-08-09T06:36:33.983Z,101855.53
2022-08-09T06:39:02.512Z,101859.63
2022-08-09T06:41:57.499Z,101859.94
2022-08-09T06:44:25.726Z,101860.47
2022-08-09T06:46:55.465Z,101864.75
2022-08-09T06:49:44.659Z,101867.19
2022-08-09T06:52:10.596Z,101862.09
2022-08-09T06:54:41.136Z,101862.66
2022-08-09T06:57:08.467Z,101852.63
2022-08-09T07:00:50.916Z,101861.41
2022-08-09T07:02:22.715Z,101860.97
2022-08-09T07:05:08.404Z,101864.78
2022-08-09T07:07:58.779Z,101871.16
2022-08-09T07:10:47.183Z,101872.66
2022-08-09T07:13:27.447Z,101872.78
2022-08-09T07:16:39.013Z,101870.84
2022-08-09T07:18:42.332Z,101871.16
2022-08-09T07:21:09.984Z,101867.47
2022-08-09T07:23:56.351Z,101866.38
2022-08-09T07:26:23.905Z,101864.81
2022-08-09T07:29:08.394Z,101867.97
2022-08-09T07:31:38.650Z,101866.72
2022-08-09T07:34:19.400Z,101870.00
2022-08-09T07:36:49.098Z,101873.22
2022-08-09T07:39:20.168Z,101868.16
2022-08-09T07:42:03.658Z,101876.75
2022-08-09T07:44:50.995Z,101871.56
2022-08-09T07:47:19.859Z,101866.63
2022-08-09T07:50:07.812Z,101862.03
2022-08-09T07:52:36.757Z,101863.38
2022-08-09T07:55:09.539Z,101864.97
2022-08-09T07:57:36.993Z,101858.00
2022-08-09T08:00:08.904Z,101860.78
2022-08-09T08:02:42.997Z,101861.91
2022-08-09T08:05:18.034Z,101868.59
2022-08-09T08:09:01.360Z,101859.50
2022-08-09T08:10:34.497Z,101855.81
2022-08-09T08:13:04.630Z,101865.50
2022-08-09T08:15:37.552Z,101867.41
2022-08-09T08:18:07.663Z,101864.38
2022-08-09T08:21:01.341Z,101861.47
2022-08-09T08:23:28.146Z,101860.06
2022-08-09T08:26:06.484Z,101859.09
2022-08-09T08:28:38.400Z,101858.25
2022-08-09T08:31:14.290Z,101851.09
2022-08-09T08:33:53.848Z,101852.66
2022-08-09T08:36:28.902Z,101851.09
2022-08-09T08:38:56.762Z,101855.44
2022-08-09T08:41:24.494Z,101858.50
2022-08-09T08:44:10.110Z,101851.47
2022-08-09T08:46:59.734Z,101856.38
2022-08-09T08:49:38.554Z,101859.28
2022-08-09T08:52:53.008Z,101860.28
2022-08-09T08:55:05.720Z,101865.72
2022-08-09T08:57:34.658Z,101868.16
2022-08-09T09:00:07.904Z,101869.09
2022-08-09T09:02:41.360Z,101861.78
2022-08-09T09:05:12.120Z,101862.50
2022-08-09T09:07:42.318Z,101862.53
2022-08-09T09:10:10.292Z,101861.44
2022-08-09T09:12:37.331Z,101858.47
2022-08-09T09:15:06.497Z,101862.75
2022-08-09T09:17:49.501Z,101862.09
2022-08-09T09:20:20.665Z,101865.41
2022-08-09T09:22:54.405Z,101865.91
2022-08-09T09:26:01.654Z,101867.06
2022-08-09T09:28:39.255Z,101869.03
2022-08-09T09:32:06.692Z,101866.31
2022-08-09T09:34:17.980Z,101860.88
2022-08-09T09:36:51.104Z,101860.41
2022-08-09T09:39:23.460Z,101864.03
2022-08-09T09:41:54.219Z,101855.13
2022-08-09T09:44:33.937Z,101858.28
2022-08-09T09:47:05.608Z,101860.06
2022-08-09T09:50:07.758Z,101859.75
2022-08-09T09:52:52.447Z,101865.66
2022-08-09T09:55:24.110Z,101870.94
2022-08-09T09:58:12.577Z,101861.28
2022-08-09T10:00:54.131Z,101864.94
2022-08-09T10:03:56.375Z,101865.47
2022-08-09T10:06:26.691Z,101868.28
2022-08-09T10:09:03.178Z,101872.25
2022-08-09T10:12:00.163Z,101854.72
2022-08-09T10:14:35.585Z,101863.47
2022-08-09T10:17:39.110Z,101855.50
2022-08-09T10:20:00.493Z,101855.38
2022-08-09T10:22:33.392Z,101855.63
2022-08-09T10:25:03.512Z,101858.09
2022-08-09T10:27:56.277Z,101846.34
2022-08-09T10:34:04.518Z,101846.63
2022-08-09T10:36:11.476Z,101846.59
2022-08-09T10:38:55.832Z,101849.50
2022-08-09T10:41:24.285Z,101840.75
2022-08-09T10:44:01.126Z,101842.41
2022-08-09T10:47:00.639Z,101844.56
2022-08-09T10:49:54.382Z,101841.78
2022-08-09T10:52:42.867Z,101835.56
2022-08-09T10:55:27.650Z,101838.03
2022-08-09T10:57:59.793Z,101840.31
2022-08-09T11:00:35.668Z,101837.66
2022-08-09T11:03:49.757Z,101832.66
2022-08-09T11:06:21.087Z,101839.94
2022-08-09T11:08:51.798Z,101832.53
2022-08-09T11:11:21.402Z,101836.06
2022-08-09T11:14:28.143Z,101840.41
2022-08-09T11:16:57.033Z,101836.50
2022-08-09T11:20:10.481Z,101836.19
2022-08-09T11:22:45.447Z,101828.13
2022-08-09T11:25:13.179Z,101822.91
2022-08-09T11:28:05.324Z,101815.88
2022-08-09T11:30:32.657Z,101821.44
2022-08-09T11:33:04.115Z,101819.59
2022-08-09T11:35:49.809Z,101816.91
2022-08-09T11:38:18.319Z,101825.56
2022-08-09T11:40:45.404Z,101827.06
2022-08-09T11:43:27.774Z,101823.78
2022-08-09T11:46:08.626Z,101818.69
2022-08-09T11:48:49.232Z,101832.59
2022-08-09T11:52:49.161Z,101823.91
2022-08-09T11:54:27.754Z,101830.13
2022-08-09T11:57:59.830Z,101829.13
2022-08-09T12:00:27.285Z,101817.38
2022-08-09T12:02:57.377Z,101823.13
2022-08-09T12:05:39.572Z,101815.72
2022-08-09T12:08:12.507Z,101823.59
2022-08-09T12:10:53.639Z,101816.41
2022-08-09T12:14:10.757Z,101818.66
2022-08-09T12:16:40.086Z,101814.53
2022-08-09T12:19:11.386Z,101800.81
2022-08-09T12:21:50.820Z,101801.59
2022-08-09T12:24:25.202Z,101793.31
2022-08-09T12:28:59.164Z,101788.94
2022-08-09T12:30:01.477Z,101791.06
2022-08-09T12:32:31.359Z,101791.44
2022-08-09T12:35:04.747Z,101782.78
2022-08-09T12:37:44.276Z,101786.06
2022-08-09T12:40:23.180Z,101790.13
2022-08-09T12:42:52.384Z,101784.31
2022-08-09T12:45:34.507Z,101781.16
2022-08-09T12:48:19.909Z,101786.00
2022-08-09T12:50:57.917Z,101775.72
2022-08-09T12:53:37.844Z,101784.47
2022-08-09T12:56:14.894Z,101778.78
2022-08-09T12:59:05.144Z,101770.75
2022-08-09T13:01:31.968Z,101774.84
2022-08-09T13:04:01.891Z,101767.97
2022-08-09T13:06:35.710Z,101771.06
2022-08-09T13:09:06.043Z,101770.47
2022-08-09T13:11:39.627Z,101760.00
2022-08-09T13:14:41.102Z,101762.72
2022-08-09T13:17:15.934Z,101770.69
2022-08-09T13:20:09.598Z,101757.78
2022-08-09T13:23:01.323Z,101754.53
2022-08-09T13:25:20.023Z,101756.00
2022-08-09T13:27:55.375Z,101750.41
2022-08-09T13:30:50.035Z,101753.25
2022-08-09T13:33:24.873Z,101744.47
2022-08-09T13:36:24.396Z,101747.84
2022-08-09T13:39:02.206Z,101751.75
2022-08-09T13:41:58.040Z,101750.22
2022-08-09T13:44:21.783Z,101745.75
2022-08-09T13:47:26.445Z,101748.06
2022-08-09T13:49:39.831Z,101747.19
2022-08-09T13:52:27.256Z,101747.88
2022-08-09T13:54:59.026Z,101741.97
2022-08-09T13:57:35.703Z,101742.06
2022-08-09T14:00:12.259Z,101746.69
2022-08-09T14:02:42.153Z,101734.06
2022-08-09T14:05:12.285Z,101744.09
2022-08-09T14:08:01.509Z,101742.06
2022-08-09T14:10:46.239Z,101735.59
2022-08-09T14:13:28.023Z,101744.38
2022-08-09T14:16:09.190Z,101743.13
2022-08-09T14:18:37.468Z,101742.75
2022-08-09T14:21:04.288Z,101743.78
2022-08-09T14:23:39.994Z,101749.38
2022-08-09T14:26:07.764Z,101741.56
2022-08-09T14:28:37.327Z,101744.06
2022-08-09T14:31:04.355Z,101741.53
2022-08-09T14:33:31.085Z,101740.69
2022-08-09T14:36:20.330Z,101742.81
2022-08-09T14:38:52.606Z,101738.59
2022-08-09T14:41:26.644Z,101744.13
2022-08-09T14:44:11.163Z,101737.81
2022-08-09T14:47:03.102Z,101740.78
2022-08-09T14:49:26.694Z,101736.78
2022-08-09T14:51:58.813Z,101733.00
2022-08-09T14:54:27.744Z,101744.28
2022-08-09T14:56:58.672Z,101734.09
2022-08-09T14:59:27.471Z,101732.13
2022-08-09T15:01:55.948Z,101736.34
2022-08-09T15:04:23.551Z,101746.13
2022-08-09T15:06:51.679Z,101737.03
2022-08-09T15:10:03.904Z,101734.53
2022-08-09T15:12:07.888Z,101731.03
2022-08-09T15:14:38.546Z,101719.03
2022-08-09T15:17:09.577Z,101720.03
2022-08-09T15:19:37.156Z,101722.41
2022-08-09T15:22:30.389Z,101724.75
2022-08-09T15:25:00.088Z,101720.72
2022-08-09T15:27:30.583Z,101713.41
2022-08-09T15:30:48.303Z,101710.31
2022-08-09T15:33:01.097Z,101707.06
2022-08-09T15:35:44.028Z,101713.03
2022-08-09T15:38:12.279Z,101711.84
2022-08-09T15:40:43.749Z,101714.91
2022-08-09T15:43:13.523Z,101715.25
2022-08-09T15:45:51.743Z,101703.47
2022-08-09T15:48:29.321Z,101714.56
2022-08-09T15:50:59.960Z,101708.78
2022-08-09T15:54:03.756Z,101693.72
2022-08-09T15:56:28.513Z,101699.13
2022-08-09T15:58:58.138Z,101699.47
2022-08-09T16:01:25.036Z,101703.19
2022-08-09T16:03:52.430Z,101708.31
2022-08-09T16:06:32.374Z,101700.91
2022-08-09T16:09:03.448Z,101699.03
2022-08-09T16:11:33.259Z,101690.84
2022-08-09T16:14:03.250Z,101690.75
2022-08-09T16:16:32.804Z,101689.22
2022-08-09T16:19:01.657Z,101688.63
2022-08-09T16:21:31.670Z,101691.69
2022-08-09T16:24:04.869Z,101692.75
2022-08-09T16:26:35.602Z,101691.72
2022-08-09T16:29:11.519Z,101679.75
2022-08-09T16:32:19.294Z,101685.88
2022-08-09T16:34:56.505Z,101690.31
2022-08-09T16:37:18.884Z,101687.28
2022-08-09T16:39:54.803Z,101690.69
2022-08-09T16:42:32.562Z,101699.56
2022-08-09T16:44:59.270Z,101695.47
2022-08-09T16:48:41.364Z,101700.53
2022-08-09T16:50:31.821Z,101696.16
2022-08-09T16:52:59.531Z,101695.13
2022-08-09T16:55:26.552Z,101694.34
2022-08-09T16:58:08.568Z,101697.91
2022-08-09T17:00:36.782Z,101698.03
2022-08-09T17:03:08.903Z,101694.84
2022-08-09T17:06:06.669Z,101698.81
2022-08-09T17:08:46.509Z,101698.56
2022-08-09T17:11:37.636Z,101712.69
2022-08-09T17:14:26.260Z,101702.53
2022-08-09T17:17:01.586Z,101708.44
2022-08-09T17:20:06.048Z,101711.53
2022-08-09T17:22:23.506Z,101712.09
2022-08-09T17:24:55.214Z,101709.00
2022-08-09T17:27:22.904Z,101719.78
2022-08-09T17:29:51.022Z,101714.06
2022-08-09T17:32:20.357Z,101720.41
2022-08-09T17:35:04.297Z,101718.34
2022-08-09T17:38:13.106Z,101719.56
2022-08-09T17:40:26.182Z,101714.75
2022-08-09T17:42:59.642Z,101724.22
2022-08-09T17:46:03.356Z,101723.75
2022-08-09T17:48:28.665Z,101728.91
2022-08-09T17:50:59.536Z,101718.34
2022-08-09T17:53:43.405Z,101727.06
2022-08-09T17:56:15.104Z,101716.84
2022-08-09T17:58:45.233Z,101723.78
2022-08-09T18:01:15.367Z,101722.84
2022-08-09T18:03:49.536Z,101720.75
2022-08-09T18:06:30.987Z,101724.25
2022-08-09T18:09:04.824Z,101728.28
2022-08-09T18:11:46.887Z,101733.00
2022-08-09T18:14:21.920Z,101727.31
2022-08-09T18:16:49.839Z,101730.84
2022-08-09T18:20:59.459Z,101733.13
2022-08-09T18:22:05.428Z,101730.75
2022-08-09T18:24:32.266Z,101737.75
2022-08-09T18:27:01.039Z,101743.88
2022-08-09T18:30:35.655Z,101737.56
2022-08-09T18:32:19.025Z,101740.53
2022-08-09T18:34:46.137Z,101744.53
2022-08-09T18:37:46.833Z,101740.56
2022-08-09T18:40:02.134Z,101744.81
2022-08-09T18:42:29.448Z,101743.38
2022-08-09T18:44:56.970Z,101754.69
2022-08-09T18:47:37.340Z,101759.56
2022-08-09T18:50:10.013Z,101754.34
2022-08-09T18:52:39.363Z,101758.88
2022-08-09T18:55:13.903Z,101763.22
2022-08-09T18:57:43.444Z,101770.00
2022-08-09T19:00:16.454Z,101769.72
2022-08-09T19:02:54.079Z,101776.25
2022-08-09T19:05:28.636Z,101774.72
2022-08-09T19:08:10.619Z,101773.88
2022-08-09T19:10:41.046Z,101776.25
2022-08-09T19:13:20.606Z,101776.88
2022-08-09T19:15:58.599Z,101785.09
2022-08-09T19:18:34.143Z,101782.59
2022-08-09T19:21:09.945Z,101780.16
2022-08-09T19:24:35.953Z,101774.84
2022-08-09T19:26:31.802Z,101775.88
2022-08-09T19:29:15.417Z,101786.94
2022-08-09T19:31:51.311Z,101782.94
2022-08-09T19:34:22.226Z,101789.75
2022-08-09T19:36:54.744Z,101783.25
2022-08-09T19:39:42.915Z,101786.25
2022-08-09T19:42:15.252Z,101787.84
2022-08-09T19:44:50.651Z,101779.25
2022-08-09T19:47:22.746Z,101789.69
2022-08-09T19:50:07.375Z,101792.06
2022-08-09T19:52:37.283Z,101786.22
2022-08-09T19:55:17.627Z,101795.94
2022-08-09T19:57:46.330Z,101784.53
2022-08-09T20:00:15.614Z,101792.28
2022-08-09T20:04:10.708Z,101797.97
2022-08-09T20:05:46.036Z,101795.25
2022-08-09T20:08:25.112Z,101793.78
2022-08-09T20:11:02.701Z,101792.47
2022-08-09T20:13:32.323Z,101800.84
2022-08-09T20:16:37.315Z,101803.47
2022-08-09T20:19:42.078Z,101802.06
2022-08-09T20:21:54.791Z,101798.69
2022-08-09T20:24:29.643Z,101791.13
2022-08-09T20:27:01.158Z,101795.34
2022-08-09T20:29:32.621Z,101783.06
2022-08-09T20:32:30.131Z,101791.50
2022-08-09T20:34:55.983Z,101797.09
2022-08-09T20:37:23.059Z,101787.84
2022-08-09T20:40:15.230Z,101791.28
2022-08-09T20:42:37.735Z,101793.38
2022-08-09T20:45:57.294Z,101790.69
2022-08-09T20:47:52.729Z,101795.16
2022-08-09T20:50:47.931Z,101798.63
2022-08-09T20:53:22.712Z,101796.88
2022-08-09T20:56:01.131Z,101804.16
2022-08-09T20:58:32.346Z,101806.84
2022-08-09T21:01:33.363Z,101810.56
2022-08-09T21:05:48.720Z,101809.63
2022-08-09T21:06:36.553Z,101805.50
2022-08-09T21:09:03.676Z,101808.47
2022-08-09T21:14:17.606Z,101794.94
2022-08-09T21:16:45.612Z,101800.72
2022-08-09T21:20:18.681Z,101805.88
2022-08-09T21:22:00.158Z,101807.44
2022-08-09T21:24:33.789Z,101815.78
2022-08-09T21:27:50.407Z,101809.53
2022-08-09T21:29:48.847Z,101816.84
2022-08-09T21:32:18.608Z,101821.25
2022-08-09T21:34:49.160Z,101811.84
2022-08-09T21:37:18.302Z,101819.53
2022-08-09T21:39:45.363Z,101816.25
2022-08-09T21:42:17.698Z,101818.16
2022-08-09T21:44:55.328Z,101820.03
2022-08-09T21:47:22.568Z,101826.63
2022-08-09T21:49:49.670Z,101828.25
2022-08-09T21:52:20.960Z,101824.72
2022-08-09T21:54:59.572Z,101824.41
2022-08-09T21:57:39.459Z,101828.63
2022-08-09T22:00:25.711Z,101825.84
2022-08-09T22:02:58.911Z,101826.59
2022-08-09T22:05:36.718Z,101836.38
2022-08-09T22:08:06.097Z,101826.25
2022-08-09T22:10:33.184Z,101831.00
2022-08-09T22:13:07.513Z,101825.72
2022-08-09T22:15:39.399Z,101832.88
2022-08-09T22:18:12.179Z,101834.22
2022-08-09T22:20:40.220Z,101835.09
2022-08-09T22:23:10.543Z,101831.72
2022-08-09T22:26:07.259Z,101838.56
2022-08-09T22:28:32.604Z,101838.03
2022-08-09T22:31:00.304Z,101838.16
2022-08-09T22:33:37.570Z,101834.03
2022-08-09T22:36:13.666Z,101841.31
2022-08-09T22:38:47.246Z,101841.69
2022-08-09T22:41:13.969Z,101845.47
2022-08-09T22:44:02.697Z,101845.81
2022-08-09T22:48:16.604Z,101847.22
2022-08-09T22:49:14.673Z,101854.97
2022-08-09T22:51:43.453Z,101851.63
2022-08-09T22:54:16.887Z,101853.59
2022-08-09T22:56:50.740Z,101848.38
2022-08-09T22:59:55.658Z,101849.03
2022-08-09T23:02:04.491Z,101848.66
2022-08-09T23:04:32.707Z,101850.13
2022-08-09T23:07:18.614Z,101857.16
2022-08-09T23:10:05.626Z,101849.06
2022-08-09T23:12:32.303Z,101849.59
2022-08-09T23:14:59.001Z,101851.31
2022-08-09T23:17:25.956Z,101854.78
2022-08-09T23:20:02.469Z,101855.28
2022-08-09T23:22:34.653Z,101862.06
2022-08-09T23:25:05.043Z,101861.06
2022-08-09T23:27:32.432Z,101854.94
2022-08-09T23:29:59.281Z,101864.13
2022-08-09T23:32:26.021Z,101859.59
2022-08-09T23:34:52.718Z,101865.97
2022-08-09T23:37:21.494Z,101857.97
2022-08-09T23:39:49.710Z,101860.91
2022-08-09T23:42:16.582Z,101871.81
2022-08-09T23:44:43.411Z,101859.22
2022-08-09T23:47:10.177Z,101856.59
2022-08-09T23:49:36.873Z,101860.38
2022-08-09T23:52:03.808Z,101863.31
2022-08-09T23:54:30.598Z,101865.94
2022-08-09T23:56:58.337Z,101857.63
2022-08-09T23:59:26.047Z,101859.88
